Cornell, Michigan
Current Conditions -  °F | °C
As of 8:55 AM on Monday 22 Dec 2014 (Local Time) from KESC Reporting Station
Overcast Overcast  
Wind Chill: 26°   Ceiling: 1200
Heat Index: 36°   Visibility: 3mi
Dew Point: 30°   Wind: 15mph
Humidity: 81%   Direction: 160°SSE
Pressure: 29.95"   Gusts: 18mph
Location:  45.9°N, 87.22°W
Report Text: KESC 221355Z AUTO 16013G16KT 3SM OVC012 02/M01 A2995 RMK AO1
Loading
Personal Weather Stations






























Interactive Weather Map New forecast layout! Learn more

10-Day Weather Forecast

Advertisements
Track Severe Weather on mobile